createdAt,value
2018-09-12T00:00:03.178Z,2.3
2018-09-12T00:03:02.961Z,4.6
2018-09-12T00:06:03.124Z,2.9
2018-09-12T00:09:03.160Z,3.3
2018-09-12T00:12:03.028Z,2.3
2018-09-12T00:15:03.180Z,2.2
2018-09-12T00:18:03.336Z,4
2018-09-12T00:21:03.814Z,2.3
2018-09-12T00:24:03.136Z,2.3
2018-09-12T00:27:03.010Z,2.3
2018-09-12T00:30:03.409Z,2.3
2018-09-12T00:33:03.157Z,3
2018-09-12T00:36:03.525Z,2.2
2018-09-12T00:39:03.122Z,2.5
2018-09-12T00:42:03.206Z,2.3
2018-09-12T00:45:03.217Z,2.1
2018-09-12T00:48:03.064Z,3.8
2018-09-12T00:51:03.173Z,2.8
2018-09-12T00:54:03.143Z,2.2
2018-09-12T00:57:03.142Z,2.1
2018-09-12T01:00:03.048Z,2.2
2018-09-12T01:03:03.226Z,2.4
2018-09-12T01:06:03.047Z,3.9
2018-09-12T01:09:03.206Z,2.2
2018-09-12T01:12:03.263Z,2.4
2018-09-12T01:15:03.041Z,2
2018-09-12T01:18:03.142Z,2.5
2018-09-12T01:21:03.014Z,3
2018-09-12T01:24:03.001Z,2.4
2018-09-12T01:27:03.152Z,2
2018-09-12T01:30:03.147Z,2.3
2018-09-12T01:33:03.144Z,2.6
2018-09-12T01:36:03.067Z,2.4
2018-09-12T01:39:03.113Z,2.2
2018-09-12T01:42:03.247Z,2.4
2018-09-12T01:45:02.910Z,2.3
2018-09-12T01:48:03.066Z,2.9
2018-09-12T01:51:03.033Z,2.3
2018-09-12T01:54:03.153Z,2.2
2018-09-12T01:57:03.210Z,2.3
2018-09-12T02:00:03.275Z,2
2018-09-12T02:03:03.048Z,2.2
2018-09-12T02:06:02.962Z,2.2
2018-09-12T02:09:03.066Z,2.2
2018-09-12T02:12:03.109Z,2.2
2018-09-12T02:15:02.968Z,2.3
2018-09-12T02:18:03.337Z,2.2
2018-09-12T02:21:02.950Z,2.2
2018-09-12T02:24:03.160Z,2.3
2018-09-12T02:27:03.134Z,2.3
2018-09-12T02:30:02.889Z,2.5
2018-09-12T02:33:02.967Z,2.2
2018-09-12T02:36:03.148Z,2.2
2018-09-12T02:39:03.117Z,2.2
2018-09-12T02:42:03.296Z,2.4
2018-09-12T02:45:02.918Z,2.3
2018-09-12T02:48:03.270Z,2.2
2018-09-12T02:51:02.780Z,2.2
2018-09-12T02:54:03.146Z,2.9
2018-09-12T02:57:03.043Z,2.6
2018-09-12T03:00:03.100Z,2.1
2018-09-12T03:03:02.824Z,2.2
2018-09-12T03:06:02.970Z,2.3
2018-09-12T03:09:03.031Z,2.3
2018-09-12T03:12:03.176Z,2.2
2018-09-12T03:15:03.032Z,2.3
2018-09-12T03:18:03.033Z,2.1
2018-09-12T03:21:06.213Z,2.2
2018-09-12T03:24:03.066Z,2.3
2018-09-12T03:27:03.578Z,2.3
2018-09-12T03:30:03.080Z,2.2
2018-09-12T03:33:03.131Z,2.1
2018-09-12T03:36:03.149Z,2.2
2018-09-12T03:39:02.856Z,2.4
2018-09-12T03:42:02.916Z,2.2
2018-09-12T03:45:03.312Z,2.2
2018-09-12T03:48:04.190Z,2.2
2018-09-12T03:51:02.974Z,2.2
2018-09-12T03:54:02.959Z,2.4
2018-09-12T03:57:03.024Z,2.2
2018-09-12T04:00:03.030Z,2.3
2018-09-12T04:03:02.912Z,2.3
2018-09-12T04:06:03.062Z,2.2
2018-09-12T04:09:02.930Z,2.3
2018-09-12T04:12:03.054Z,2.4
2018-09-12T04:15:02.982Z,2.2
2018-09-12T04:18:03.107Z,2.3
2018-09-12T04:21:03.021Z,2.2
2018-09-12T04:24:03.369Z,2.1
2018-09-12T04:27:03.036Z,2.2
2018-09-12T04:30:03.254Z,2.2
2018-09-12T04:33:02.900Z,2.3
2018-09-12T04:36:03.003Z,2.2
2018-09-12T04:39:03.071Z,2.2
2018-09-12T04:42:02.975Z,2.7
2018-09-12T04:45:03.092Z,2.3
2018-09-12T04:48:03.070Z,2.3
2018-09-12T04:51:03.044Z,2.3
2018-09-12T04:54:02.918Z,2.3
2018-09-12T04:57:03.146Z,2.1
2018-09-12T05:00:03.332Z,2.2
2018-09-12T05:03:03.287Z,2.2
2018-09-12T05:06:02.971Z,2.3
2018-09-12T05:09:03.119Z,2.3
2018-09-12T05:12:02.783Z,2.3
2018-09-12T05:15:03.137Z,2.2
2018-09-12T05:18:03.113Z,2.3
2018-09-12T05:21:03.035Z,2.2
2018-09-12T05:24:03.012Z,2.3
2018-09-12T05:27:02.984Z,2.2
2018-09-12T05:30:02.940Z,2.8
2018-09-12T05:33:03.012Z,2.3
2018-09-12T05:36:03.065Z,2.3
2018-09-12T05:39:02.957Z,2.4
2018-09-12T05:42:02.832Z,2.2
2018-09-12T05:45:02.935Z,2.5
2018-09-12T05:48:03.085Z,2.4
2018-09-12T05:51:03.046Z,2.4
2018-09-12T05:54:03.051Z,2.3
2018-09-12T05:57:03.056Z,4.5
2018-09-12T06:00:02.906Z,5.8
2018-09-12T06:03:02.997Z,6.3
2018-09-12T06:06:03.096Z,4.8
2018-09-12T06:09:02.964Z,6.9
2018-09-12T06:12:03.291Z,5.9
2018-09-12T06:15:03.283Z,6.4
2018-09-12T06:18:03.166Z,6.4
2018-09-12T06:21:02.863Z,8.7
2018-09-12T06:24:02.826Z,18.8
2018-09-12T06:27:02.942Z,6.7
2018-09-12T06:30:03.088Z,7.8
2018-09-12T06:33:03.209Z,7.4
2018-09-12T06:36:02.959Z,9.4
2018-09-12T06:39:03.027Z,8.8
2018-09-12T06:42:03.118Z,5.7
2018-09-12T06:45:03.088Z,7.3
2018-09-12T06:48:03.005Z,6.4
2018-09-12T06:51:02.929Z,5.9
2018-09-12T06:54:03.149Z,6.1
2018-09-12T06:57:02.915Z,5.3
2018-09-12T07:00:02.920Z,5.1
2018-09-12T07:03:02.914Z,4.7
2018-09-12T07:06:02.895Z,7.7
2018-09-12T07:09:03.100Z,5.8
2018-09-12T07:12:03.191Z,5.1
2018-09-12T07:15:03.170Z,7
2018-09-12T07:18:03.272Z,4.4
2018-09-12T07:21:03.071Z,4.4
2018-09-12T07:24:03.154Z,5.4
2018-09-12T07:27:03.038Z,5
2018-09-12T07:30:02.935Z,4.4
2018-09-12T07:33:03.024Z,5
2018-09-12T07:36:03.003Z,4.6
2018-09-12T07:39:03.044Z,5.2
2018-09-12T07:42:03.096Z,4.6
2018-09-12T07:45:03.178Z,5
2018-09-12T07:48:03.144Z,5.1
2018-09-12T07:51:02.892Z,5.5
2018-09-12T07:54:02.923Z,4.9
2018-09-12T07:57:03.106Z,4.9
2018-09-12T08:00:04.164Z,5.5
2018-09-12T08:03:03.106Z,5.2
2018-09-12T08:06:03.239Z,4.8
2018-09-12T08:09:02.880Z,4.7
2018-09-12T08:12:03.230Z,4.6
2018-09-12T08:15:03.027Z,4.5
2018-09-12T08:18:02.956Z,4.4
2018-09-12T08:21:02.801Z,4.8
2018-09-12T08:24:03.064Z,4.8
2018-09-12T08:27:02.905Z,4.2
2018-09-12T08:30:02.984Z,4.3
2018-09-12T08:33:03.097Z,4.9
2018-09-12T08:36:02.999Z,4.6
2018-09-12T08:39:03.013Z,5.4
2018-09-12T08:42:03.660Z,4.9
2018-09-12T08:45:03.168Z,4.5
2018-09-12T08:48:03.109Z,4.6
2018-09-12T08:51:03.095Z,5.2
2018-09-12T08:54:03.137Z,4.2
2018-09-12T08:57:02.914Z,4.4
2018-09-12T09:00:02.954Z,5.7
2018-09-12T09:03:02.973Z,7.8
2018-09-12T09:06:02.898Z,6.9
2018-09-12T09:09:02.964Z,6.7
2018-09-12T09:12:02.999Z,10
2018-09-12T09:15:03.065Z,9.3
2018-09-12T09:18:03.021Z,8.4
2018-09-12T09:21:02.890Z,9.8
2018-09-12T09:24:03.120Z,5.3
2018-09-12T09:27:02.792Z,7.7
2018-09-12T09:30:02.926Z,5.7
2018-09-12T09:33:02.812Z,6.2
2018-09-12T09:36:03.005Z,5.8
2018-09-12T09:39:02.872Z,6.8
2018-09-12T09:42:03.107Z,6.7
2018-09-12T09:45:02.898Z,5.9
2018-09-12T09:48:04.215Z,6.8
2018-09-12T09:51:02.916Z,5.8
2018-09-12T09:54:03.272Z,5.6
2018-09-12T09:57:03.199Z,5.8
2018-09-12T10:00:03.112Z,5.9
2018-09-12T10:03:03.096Z,5.8
2018-09-12T10:06:04.073Z,6.5
2018-09-12T10:09:02.890Z,4.9
2018-09-12T10:12:02.828Z,4.7
2018-09-12T10:15:02.950Z,6.3
2018-09-12T10:18:02.941Z,4.7
2018-09-12T10:21:03.142Z,5.1
2018-09-12T10:24:02.871Z,4.8
2018-09-12T10:27:02.960Z,6.2
2018-09-12T10:30:02.993Z,5.8
2018-09-12T10:33:02.950Z,4.2
2018-09-12T10:36:03.099Z,4.6
2018-09-12T10:39:03.068Z,4.3
2018-09-12T10:42:03.068Z,4.4
2018-09-12T10:45:03.118Z,4.4
2018-09-12T10:48:02.937Z,4.7
2018-09-12T10:51:03.036Z,4.1
2018-09-12T10:54:02.942Z,5.5
2018-09-12T10:57:02.755Z,5.1
2018-09-12T11:00:02.962Z,4.6
2018-09-12T11:03:02.975Z,4.2
2018-09-12T11:06:02.832Z,4.2
2018-09-12T11:09:02.889Z,4.3
2018-09-12T11:12:03.070Z,4.3
2018-09-12T11:15:03.020Z,4.3
2018-09-12T11:18:03.193Z,4.1
2018-09-12T11:21:03.131Z,4.7
2018-09-12T11:24:04.464Z,4.3
2018-09-12T11:27:03.093Z,4.5
2018-09-12T11:30:02.908Z,5.1
2018-09-12T11:33:03.004Z,4.2
2018-09-12T11:36:03.059Z,4.5
2018-09-12T11:39:03.189Z,5
2018-09-12T11:42:03.102Z,4.5
2018-09-12T11:45:03.449Z,4.8
2018-09-12T11:48:02.974Z,5
2018-09-12T11:51:03.017Z,4.3
2018-09-12T11:54:03.060Z,4.2
2018-09-12T11:57:02.970Z,3.7
2018-09-12T12:00:03.101Z,4.4
2018-09-12T12:03:03.132Z,4.3
2018-09-12T12:06:03.305Z,4.1
2018-09-12T12:09:02.897Z,4.3
2018-09-12T12:12:02.979Z,4.9
2018-09-12T12:15:03.154Z,4.2
2018-09-12T12:18:03.257Z,4.3
2018-09-12T12:21:02.847Z,4.8
2018-09-12T12:24:02.911Z,4.1
2018-09-12T12:27:03.209Z,4.4
2018-09-12T12:30:02.913Z,4.5
2018-09-12T12:33:03.023Z,4
2018-09-12T12:36:02.888Z,5.4
2018-09-12T12:39:02.985Z,5.1
2018-09-12T12:42:02.999Z,5.1
2018-09-12T12:45:02.912Z,9
2018-09-12T12:48:02.892Z,7
2018-09-12T12:51:03.010Z,12.5
2018-09-12T12:54:03.056Z,9
2018-09-12T12:57:02.966Z,8.3
2018-09-12T13:00:03.081Z,9
2018-09-12T13:03:03.003Z,6.8
2018-09-12T13:06:02.967Z,5.6
2018-09-12T13:09:03.168Z,7.7
2018-09-12T13:12:02.916Z,8.4
2018-09-12T13:15:03.098Z,7.5
2018-09-12T13:18:03.044Z,5
2018-09-12T13:21:03.011Z,5.1
2018-09-12T13:24:03.024Z,7.5
2018-09-12T13:27:02.890Z,8.6
2018-09-12T13:30:03.373Z,8
2018-09-12T13:33:03.183Z,5.9
2018-09-12T13:36:02.876Z,8.2
2018-09-12T13:39:02.936Z,8.3
2018-09-12T13:42:02.884Z,6.2
2018-09-12T13:45:02.853Z,6.3
2018-09-12T13:48:02.958Z,5.1
2018-09-12T13:51:02.984Z,6
2018-09-12T13:54:02.953Z,5.7
2018-09-12T13:57:02.926Z,5.9
2018-09-12T14:00:02.772Z,5.4
2018-09-12T14:03:03.428Z,5.1
2018-09-12T14:06:02.811Z,5.9
2018-09-12T14:09:02.926Z,5.5
2018-09-12T14:12:03.096Z,4.3
2018-09-12T14:15:03.320Z,6.2
2018-09-12T14:18:02.842Z,4.9
2018-09-12T14:21:02.849Z,5
2018-09-12T14:24:02.972Z,5.3
2018-09-12T14:27:02.909Z,4.8
2018-09-12T14:30:03.155Z,6.1
2018-09-12T14:33:02.854Z,5.2
2018-09-12T14:36:02.801Z,5
2018-09-12T14:39:03.828Z,4.1
2018-09-12T14:42:03.696Z,4.2
2018-09-12T14:45:03.867Z,4.2
2018-09-12T14:48:03.099Z,4.6
2018-09-12T14:51:02.988Z,5.1
2018-09-12T14:54:03.166Z,3.9
2018-09-12T14:57:02.982Z,4
2018-09-12T15:00:03.141Z,4.8
2018-09-12T15:03:03.011Z,3.9
2018-09-12T15:06:03.009Z,4.1
2018-09-12T15:09:03.039Z,4.8
2018-09-12T15:12:02.905Z,3.8
2018-09-12T15:15:02.865Z,3.6
2018-09-12T15:18:02.990Z,4.2
2018-09-12T15:21:03.024Z,4.4
2018-09-12T15:24:02.928Z,3.8
2018-09-12T15:27:03.597Z,4
2018-09-12T15:30:02.871Z,4
2018-09-12T15:33:03.050Z,4.9
2018-09-12T15:36:03.078Z,3.8
2018-09-12T15:39:03.124Z,4.3
2018-09-12T15:42:03.274Z,4.4
2018-09-12T15:45:02.854Z,4.2
2018-09-12T15:48:02.967Z,3.6
2018-09-12T15:51:03.102Z,3.8
2018-09-12T15:54:03.070Z,4.9
2018-09-12T15:57:02.985Z,3.4
2018-09-12T16:00:02.925Z,3.8
2018-09-12T16:03:03.171Z,3.9
2018-09-12T16:06:02.941Z,3.5
2018-09-12T16:09:03.841Z,3.9
2018-09-12T16:12:02.668Z,3.8
2018-09-12T16:15:03.239Z,3.8
2018-09-12T16:18:03.156Z,3.2
2018-09-12T16:21:02.953Z,6.6
2018-09-12T16:24:02.810Z,3.9
2018-09-12T16:27:02.993Z,3.9
2018-09-12T16:30:02.975Z,3.5
2018-09-12T16:33:04.242Z,4.3
2018-09-12T16:36:02.891Z,4.3
2018-09-12T16:39:02.723Z,4.6
2018-09-12T16:42:03.068Z,5.9
2018-09-12T16:45:03.010Z,4.4
2018-09-12T16:48:03.062Z,3.5
2018-09-12T16:51:03.002Z,3.6
2018-09-12T16:54:03.242Z,4
2018-09-12T16:57:02.978Z,4.2
2018-09-12T17:00:02.964Z,6.9
2018-09-12T17:03:03.134Z,4
2018-09-12T17:06:02.620Z,5.6
2018-09-12T17:09:03.210Z,4.1
2018-09-12T17:12:02.873Z,3.8
2018-09-12T17:15:02.884Z,3.8
2018-09-12T17:18:02.986Z,3.7
2018-09-12T17:21:02.928Z,3.4
2018-09-12T17:24:02.940Z,3.8
2018-09-12T17:27:02.767Z,5.2
2018-09-12T17:30:03.005Z,3.2
2018-09-12T17:33:02.699Z,3.7
2018-09-12T17:36:02.967Z,3.4
2018-09-12T17:39:02.819Z,4.4
2018-09-12T17:42:03.050Z,3.9
2018-09-12T17:45:03.017Z,4.4
2018-09-12T17:48:02.877Z,4.3
2018-09-12T17:51:03.144Z,4.2
2018-09-12T17:54:03.105Z,3.5
2018-09-12T17:57:02.712Z,3.7
2018-09-12T18:00:02.882Z,4.4
2018-09-12T18:03:02.905Z,3.3
2018-09-12T18:06:02.761Z,3.2
2018-09-12T18:09:03.012Z,4.1
2018-09-12T18:12:02.922Z,3.4
2018-09-12T18:15:02.915Z,3.8
2018-09-12T18:18:02.812Z,3.9
2018-09-12T18:21:02.871Z,4
2018-09-12T18:24:02.761Z,3.6
2018-09-12T18:27:02.993Z,5
2018-09-12T18:30:02.811Z,6.7
2018-09-12T18:33:02.904Z,4.2
2018-09-12T18:36:03.469Z,6.3
2018-09-12T18:39:02.891Z,4.7
2018-09-12T18:42:03.050Z,5.4
2018-09-12T18:45:02.967Z,4.6
2018-09-12T18:48:02.904Z,3.6
2018-09-12T18:51:02.945Z,5.6
2018-09-12T18:54:03.865Z,5
2018-09-12T18:57:03.085Z,4.9
2018-09-12T19:00:02.953Z,10.4
2018-09-12T19:03:03.004Z,4.4
2018-09-12T19:06:02.947Z,5.6
2018-09-12T19:09:02.735Z,4.8
2018-09-12T19:12:02.968Z,4.2
2018-09-12T19:15:02.915Z,5.7
2018-09-12T19:18:03.694Z,9.8
2018-09-12T19:21:02.998Z,7.3
2018-09-12T19:24:02.926Z,6.7
2018-09-12T19:27:02.872Z,9.2
2018-09-12T19:30:02.795Z,6.3
2018-09-12T19:33:02.987Z,7.9
2018-09-12T19:36:04.060Z,12
2018-09-12T19:39:02.858Z,6.1
2018-09-12T19:42:04.029Z,6
2018-09-12T19:45:03.090Z,8.3
2018-09-12T19:48:03.979Z,8.7
2018-09-12T19:51:03.001Z,4.9
2018-09-12T19:54:02.934Z,7.8
2018-09-12T19:57:02.952Z,5.2
2018-09-12T20:00:02.754Z,5.6
2018-09-12T20:03:03.009Z,5.6
2018-09-12T20:06:02.973Z,5.8
2018-09-12T20:09:02.918Z,5.9
2018-09-12T20:12:02.930Z,8.2
2018-09-12T20:15:03.324Z,5
2018-09-12T20:18:02.900Z,5.4
2018-09-12T20:21:02.951Z,6.2
2018-09-12T20:24:04.853Z,4.7
2018-09-12T20:27:02.942Z,4.5
2018-09-12T20:30:04.079Z,6
2018-09-12T20:33:02.805Z,6
2018-09-12T20:36:03.209Z,4.8
2018-09-12T20:39:02.942Z,4.2
2018-09-12T20:42:02.731Z,5.4
2018-09-12T20:45:02.914Z,5.3
2018-09-12T20:48:03.041Z,5.8
2018-09-12T20:51:02.781Z,5
2018-09-12T20:54:02.912Z,4.6
2018-09-12T20:57:02.722Z,4.8
2018-09-12T21:00:02.744Z,5.4
2018-09-12T21:03:03.066Z,4.6
2018-09-12T21:06:02.667Z,4.3
2018-09-12T21:09:02.845Z,4.8
2018-09-12T21:12:02.688Z,4.7
2018-09-12T21:15:02.779Z,4.9
2018-09-12T21:18:03.715Z,5.4
2018-09-12T21:21:02.793Z,5.2
2018-09-12T21:24:03.044Z,4.4
2018-09-12T21:27:02.910Z,4.4
2018-09-12T21:30:02.680Z,4.6
2018-09-12T21:33:02.935Z,4.7
2018-09-12T21:36:03.151Z,4.4
2018-09-12T21:39:02.903Z,3.7
2018-09-12T21:42:03.046Z,5.4
2018-09-12T21:45:03.025Z,3.7
2018-09-12T21:48:03.036Z,4.6
2018-09-12T21:51:02.912Z,3.2
2018-09-12T21:54:02.921Z,4.7
2018-09-12T21:57:02.986Z,3.8
2018-09-12T22:00:02.800Z,4.7
2018-09-12T22:03:02.967Z,4.1
2018-09-12T22:06:02.681Z,4.2
2018-09-12T22:09:02.705Z,3.1
2018-09-12T22:12:02.776Z,4.2
2018-09-12T22:15:02.928Z,2.8
2018-09-12T22:18:02.693Z,3.6
2018-09-12T22:21:02.715Z,3.2
2018-09-12T22:24:02.928Z,3.6
2018-09-12T22:27:03.193Z,3
2018-09-12T22:30:03.066Z,4
2018-09-12T22:33:02.827Z,4.4
2018-09-12T22:36:02.768Z,3.4
2018-09-12T22:39:03.011Z,3.8
2018-09-12T22:42:02.770Z,3.4
2018-09-12T22:45:02.879Z,2.9
2018-09-12T22:48:02.619Z,3.2
2018-09-12T22:51:02.987Z,3.5
2018-09-12T22:54:03.164Z,3.7
2018-09-12T22:57:02.974Z,3.2
2018-09-12T23:00:02.751Z,3.3
2018-09-12T23:03:02.781Z,2.7
2018-09-12T23:06:02.894Z,3.2
2018-09-12T23:09:02.541Z,2.6
2018-09-12T23:12:03.057Z,3.4
2018-09-12T23:15:02.716Z,3.5
2018-09-12T23:18:02.715Z,2.8
2018-09-12T23:21:02.922Z,4.3
2018-09-12T23:24:02.953Z,4
2018-09-12T23:27:03.152Z,2.7
2018-09-12T23:30:02.830Z,3.8
2018-09-12T23:33:02.835Z,3.6
2018-09-12T23:36:02.719Z,2.7
2018-09-12T23:39:02.780Z,3.5
2018-09-12T23:42:02.600Z,3
2018-09-12T23:45:02.694Z,2.9
2018-09-12T23:48:03.154Z,2.9
2018-09-12T23:51:02.612Z,2.7
2018-09-12T23:54:03.060Z,4.4
2018-09-12T23:57:02.676Z,2.7
